createdAt,value
2018-08-28T00:01:06.515Z,99.90
2018-08-28T00:03:54.195Z,99.90
2018-08-28T00:06:37.613Z,99.90
2018-08-28T00:09:24.159Z,99.90
2018-08-28T00:12:07.520Z,99.90
2018-08-28T00:14:54.070Z,99.90
2018-08-28T00:17:38.113Z,99.90
2018-08-28T00:20:24.899Z,99.90
2018-08-28T00:23:08.009Z,99.90
2018-08-28T00:25:55.613Z,99.90
2018-08-28T00:28:40.580Z,99.90
2018-08-28T00:31:27.215Z,99.90
2018-08-28T00:34:10.990Z,99.90
2018-08-28T00:36:58.049Z,99.90
2018-08-28T00:39:41.268Z,99.90
2018-08-28T00:42:27.988Z,99.90
2018-08-28T00:45:11.572Z,99.90
2018-08-28T00:47:57.784Z,99.90
2018-08-28T00:50:40.898Z,99.90
2018-08-28T00:53:29.554Z,99.90
2018-08-28T00:56:13.209Z,99.90
2018-08-28T00:59:00.250Z,99.90
2018-08-28T01:01:43.578Z,99.90
2018-08-28T01:04:30.107Z,99.90
2018-08-28T01:07:13.202Z,99.90
2018-08-28T01:10:00.045Z,99.90
2018-08-28T01:12:43.962Z,99.90
2018-08-28T01:15:30.902Z,99.90
2018-08-28T01:18:14.135Z,99.90
2018-08-28T01:21:08.809Z,99.90
2018-08-28T01:23:52.026Z,99.90
2018-08-28T01:26:24.384Z,99.90
2018-08-28T01:28:53.013Z,99.90
2018-08-28T01:31:25.075Z,99.90
2018-08-28T01:33:53.604Z,99.90
2018-08-28T01:36:22.116Z,99.90
2018-08-28T01:38:53.812Z,99.90
2018-08-28T01:41:23.091Z,99.90
2018-08-28T01:43:55.556Z,99.90
2018-08-28T01:46:24.106Z,99.90
2018-08-28T01:48:56.412Z,99.90
2018-08-28T01:51:24.958Z,99.90
2018-08-28T01:53:57.259Z,99.90
2018-08-28T01:56:26.100Z,99.90
2018-08-28T01:58:58.119Z,99.90
2018-08-28T02:01:26.699Z,99.90
2018-08-28T02:03:55.212Z,99.90
2018-08-28T02:06:26.722Z,99.90
2018-08-28T02:08:55.230Z,99.90
2018-08-28T02:11:23.754Z,99.90
2018-08-28T02:13:55.385Z,99.90
2018-08-28T02:16:23.901Z,99.90
2018-08-28T02:18:56.190Z,99.90
2018-08-28T02:21:24.753Z,99.90
2018-08-28T02:24:01.622Z,99.90
2018-08-28T02:26:30.166Z,99.90
2018-08-28T02:29:02.486Z,99.90
2018-08-28T02:31:30.997Z,99.90
2018-08-28T02:34:03.545Z,99.90
2018-08-28T02:36:32.111Z,99.90
2018-08-28T02:39:04.293Z,99.90
2018-08-28T02:41:32.844Z,99.90
2018-08-28T02:44:01.365Z,99.90
2018-08-28T02:46:33.769Z,99.90
2018-08-28T02:49:02.400Z,99.90
2018-08-28T02:51:35.516Z,99.90
2018-08-28T02:54:04.072Z,99.90
2018-08-28T02:56:36.399Z,99.90
2018-08-28T02:59:05.008Z,99.90
2018-08-28T03:01:40.904Z,99.90
2018-08-28T03:04:09.417Z,99.90
2018-08-28T03:06:40.892Z,99.90
2018-08-28T03:09:09.524Z,99.90
2018-08-28T03:11:38.129Z,99.90
2018-08-28T03:14:10.445Z,99.90
2018-08-28T03:16:38.970Z,99.90
2018-08-28T03:19:07.481Z,99.90
2018-08-28T03:21:39.060Z,99.90
2018-08-28T03:24:11.598Z,99.90
2018-08-28T03:26:44.396Z,99.90
2018-08-28T03:29:12.924Z,99.90
2018-08-28T03:31:41.418Z,99.90
2018-08-28T03:34:13.010Z,99.90
2018-08-28T03:36:41.521Z,99.90
2018-08-28T03:39:10.026Z,99.90
2018-08-28T03:41:42.536Z,99.90
2018-08-28T03:44:11.129Z,99.90
2018-08-28T03:46:43.355Z,99.90
2018-08-28T03:49:11.944Z,99.90
2018-08-28T03:51:40.460Z,99.90
2018-08-28T03:54:11.989Z,99.90
2018-08-28T03:56:40.508Z,99.90
2018-08-28T03:59:09.050Z,99.90
2018-08-28T04:01:41.473Z,99.90
2018-08-28T04:04:10.193Z,99.90
2018-08-28T04:06:42.360Z,99.90
2018-08-28T04:09:11.084Z,99.90
2018-08-28T04:11:44.590Z,99.90
2018-08-28T04:14:13.428Z,99.90
2018-08-28T04:16:45.063Z,99.90
2018-08-28T04:19:13.596Z,99.90
2018-08-28T04:21:42.105Z,99.90
2018-08-28T04:24:17.259Z,99.90
2018-08-28T04:26:45.807Z,99.90
2018-08-28T04:29:14.321Z,99.90
2018-08-28T04:31:45.912Z,99.90
2018-08-28T04:34:14.445Z,99.90
2018-08-28T04:36:42.938Z,99.90
2018-08-28T04:39:15.326Z,99.90
2018-08-28T04:41:44.055Z,99.90
2018-08-28T04:44:16.212Z,99.90
2018-08-28T04:46:44.961Z,99.90
2018-08-28T04:49:17.067Z,99.90
2018-08-28T04:51:45.648Z,99.90
2018-08-28T04:54:18.108Z,99.90
2018-08-28T04:56:46.654Z,99.90
2018-08-28T04:59:15.182Z,99.90
2018-08-28T05:01:47.492Z,99.90
2018-08-28T05:04:16.038Z,99.90
2018-08-28T05:06:48.465Z,99.90
2018-08-28T05:09:17.007Z,99.90
2018-08-28T05:11:45.627Z,99.90
2018-08-28T05:14:16.979Z,99.90
2018-08-28T05:16:45.499Z,99.90
2018-08-28T05:19:14.099Z,99.90
2018-08-28T05:21:47.440Z,99.90
2018-08-28T05:24:19.185Z,99.90
2018-08-28T05:26:51.016Z,99.90
2018-08-28T05:29:19.971Z,99.90
2018-08-28T05:31:51.920Z,99.90
2018-08-28T05:34:20.460Z,99.90
2018-08-28T05:36:48.979Z,99.90
2018-08-28T05:39:24.984Z,99.90
2018-08-28T05:41:53.514Z,99.90
2018-08-28T05:44:25.019Z,99.90
2018-08-28T05:46:53.559Z,99.90
2018-08-28T05:49:22.132Z,99.90
2018-08-28T05:51:54.575Z,99.90
2018-08-28T05:54:23.164Z,99.90
2018-08-28T05:56:56.041Z,99.90
2018-08-28T05:59:25.691Z,99.90
2018-08-28T06:01:58.145Z,99.90
2018-08-28T06:04:28.206Z,99.90
2018-08-28T06:07:00.853Z,99.90
2018-08-28T06:09:29.840Z,99.90
2018-08-28T06:12:02.616Z,99.90
2018-08-28T06:14:31.171Z,99.90
2018-08-28T06:17:04.410Z,99.90
2018-08-28T06:19:33.809Z,99.90
2018-08-28T06:22:06.149Z,99.90
2018-08-28T06:24:38.762Z,99.90
2018-08-28T06:27:12.571Z,99.90
2018-08-28T06:29:41.324Z,99.90
2018-08-28T06:32:14.163Z,99.90
2018-08-28T06:34:42.711Z,99.90
2018-08-28T06:37:16.028Z,99.90
2018-08-28T06:39:44.596Z,99.90
2018-08-28T06:42:13.127Z,99.90
2018-08-28T06:44:45.580Z,99.90
2018-08-28T06:47:14.109Z,99.90
2018-08-28T06:49:46.354Z,99.90
2018-08-28T06:52:14.955Z,99.90
2018-08-28T06:54:43.517Z,99.90
2018-08-28T06:57:16.839Z,99.90
2018-08-28T06:59:45.912Z,99.90
2018-08-28T07:02:18.712Z,99.90
2018-08-28T07:04:47.186Z,99.90
2018-08-28T07:07:19.551Z,99.90
2018-08-28T07:09:49.048Z,99.90
2018-08-28T07:12:21.262Z,99.90
2018-08-28T07:14:49.870Z,99.90
2018-08-28T07:17:22.163Z,99.90
2018-08-28T07:19:50.726Z,99.90
2018-08-28T07:22:19.242Z,99.90
2018-08-28T07:24:55.224Z,99.90
2018-08-28T07:27:26.801Z,99.90
2018-08-28T07:29:59.828Z,99.90
2018-08-28T07:32:28.297Z,99.90
2018-08-28T07:35:01.487Z,99.90
2018-08-28T07:37:30.088Z,99.90
2018-08-28T07:40:06.514Z,99.90
2018-08-28T07:42:35.169Z,99.90
2018-08-28T07:45:09.318Z,99.90
2018-08-28T07:47:37.853Z,99.90
2018-08-28T07:50:10.581Z,99.90
2018-08-28T07:52:40.670Z,99.90
2018-08-28T07:55:12.352Z,99.90
2018-08-28T07:57:41.008Z,99.90
2018-08-28T08:00:13.210Z,99.90
2018-08-28T08:02:41.735Z,99.90
2018-08-28T08:05:10.239Z,99.90
2018-08-28T08:07:42.646Z,99.90
2018-08-28T08:10:11.225Z,99.90
2018-08-28T08:12:43.619Z,99.90
2018-08-28T08:15:12.131Z,99.90
2018-08-28T08:17:44.472Z,99.90
2018-08-28T08:20:13.029Z,99.90
2018-08-28T08:22:45.318Z,99.90
2018-08-28T08:25:17.929Z,99.90
2018-08-28T08:27:50.753Z,99.90
2018-08-28T08:30:19.287Z,99.90
2018-08-28T08:32:51.656Z,99.90
2018-08-28T08:35:20.209Z,99.90
2018-08-28T08:37:52.509Z,99.90
2018-08-28T08:40:21.021Z,99.90
2018-08-28T08:42:49.526Z,99.90
2018-08-28T08:45:21.033Z,99.90
2018-08-28T08:47:49.616Z,99.90
2018-08-28T08:50:18.124Z,99.90
2018-08-28T08:52:50.596Z,99.90
2018-08-28T08:55:19.196Z,99.90
2018-08-28T08:57:51.468Z,99.90
2018-08-28T09:00:20.000Z,99.90
2018-08-28T09:02:48.601Z,99.90
2018-08-28T09:05:20.113Z,99.90
2018-08-28T09:07:48.944Z,99.90
2018-08-28T09:10:21.812Z,99.90
2018-08-28T09:12:50.387Z,99.90
2018-08-28T09:15:23.654Z,99.90
2018-08-28T09:17:52.151Z,99.90
2018-08-28T09:20:24.493Z,99.90
2018-08-28T09:22:53.004Z,99.90
2018-08-28T09:25:36.634Z,99.90
2018-08-28T09:28:05.196Z,99.90
2018-08-28T09:30:37.177Z,99.90
2018-08-28T09:33:05.992Z,99.90
2018-08-28T09:35:38.065Z,99.90
2018-08-28T09:38:06.655Z,99.90
2018-08-28T09:40:39.855Z,99.90
2018-08-28T09:43:08.407Z,99.90
2018-08-28T09:45:45.110Z,99.90
2018-08-28T09:48:22.092Z,99.90
2018-08-28T09:50:50.610Z,99.90
2018-08-28T09:53:23.862Z,99.90
2018-08-28T09:55:53.197Z,99.90
2018-08-28T09:58:25.632Z,99.90
2018-08-28T10:00:59.616Z,99.90
2018-08-28T10:03:31.912Z,99.90
2018-08-28T10:06:00.407Z,99.00
2018-08-28T10:08:32.724Z,99.90
2018-08-28T10:11:01.644Z,99.60
2018-08-28T10:13:34.583Z,99.90
2018-08-28T10:16:03.105Z,96.00
2018-08-28T10:18:31.649Z,96.30
2018-08-28T10:21:03.189Z,95.60
2018-08-28T10:23:31.727Z,98.00
2018-08-28T10:26:07.628Z,94.40
2018-08-28T10:28:36.156Z,93.00
2018-08-28T10:31:04.773Z,91.40
2018-08-28T10:33:37.170Z,90.30
2018-08-28T10:36:05.760Z,92.00
2018-08-28T10:38:34.315Z,90.00
2018-08-28T10:41:06.739Z,91.90
2018-08-28T10:43:35.250Z,90.30
2018-08-28T10:46:03.825Z,87.40
2018-08-28T10:48:35.253Z,90.50
2018-08-28T10:51:03.758Z,92.00
2018-08-28T10:53:39.808Z,91.80
2018-08-28T10:56:08.338Z,90.40
2018-08-28T10:58:40.690Z,90.40
2018-08-28T11:01:09.375Z,91.00
2018-08-28T11:03:41.521Z,89.00
2018-08-28T11:06:10.031Z,86.50
2018-08-28T11:08:42.390Z,87.90
2018-08-28T11:11:10.890Z,84.60
2018-08-28T11:13:43.297Z,84.50
2018-08-28T11:16:11.826Z,85.50
2018-08-28T11:18:44.216Z,84.20
2018-08-28T11:21:12.736Z,82.70
2018-08-28T11:23:41.293Z,81.10
2018-08-28T11:26:17.246Z,80.80
2018-08-28T11:28:46.133Z,85.20
2018-08-28T11:31:18.146Z,85.00
2018-08-28T11:33:46.669Z,88.20
2018-08-28T11:36:15.267Z,85.60
2018-08-28T11:38:47.667Z,84.20
2018-08-28T11:41:16.216Z,83.30
2018-08-28T11:43:45.039Z,79.90
2018-08-28T11:46:17.212Z,83.40
2018-08-28T11:48:45.748Z,79.70
2018-08-28T11:51:14.277Z,79.60
2018-08-28T11:53:46.646Z,76.70
2018-08-28T11:56:15.205Z,77.30
2018-08-28T11:58:43.752Z,77.30
2018-08-28T12:01:15.265Z,75.60
2018-08-28T12:03:43.822Z,78.80
2018-08-28T12:06:24.329Z,77.00
2018-08-28T12:08:52.876Z,74.40
2018-08-28T12:11:25.184Z,73.80
2018-08-28T12:13:53.751Z,74.50
2018-08-28T12:16:22.332Z,78.70
2018-08-28T12:18:58.330Z,79.50
2018-08-28T12:21:26.892Z,75.80
2018-08-28T12:23:58.355Z,74.30
2018-08-28T12:26:31.562Z,76.30
2018-08-28T12:29:04.668Z,77.70
2018-08-28T12:31:33.162Z,76.10
2018-08-28T12:34:10.918Z,74.90
2018-08-28T12:36:39.509Z,73.80
2018-08-28T12:39:12.728Z,78.40
2018-08-28T12:41:41.270Z,75.40
2018-08-28T12:44:09.907Z,80.80
2018-08-28T12:46:41.331Z,79.80
2018-08-28T12:49:09.935Z,78.00
2018-08-28T12:51:38.489Z,78.40
2018-08-28T12:54:10.888Z,78.50
2018-08-28T12:56:39.407Z,77.20
2018-08-28T12:59:11.753Z,78.80
2018-08-28T13:01:40.316Z,77.40
2018-08-28T13:04:08.871Z,78.70
2018-08-28T13:06:40.398Z,78.80
2018-08-28T13:09:09.034Z,79.40
2018-08-28T13:11:41.258Z,79.10
2018-08-28T13:14:09.830Z,80.40
2018-08-28T13:16:43.036Z,79.00
2018-08-28T13:19:11.593Z,79.30
2018-08-28T13:21:43.891Z,80.80
2018-08-28T13:24:12.410Z,78.30
2018-08-28T13:26:48.456Z,77.80
2018-08-28T13:29:17.077Z,77.70
2018-08-28T13:31:49.200Z,79.10
2018-08-28T13:34:17.723Z,77.30
2018-08-28T13:36:46.277Z,79.10
2018-08-28T13:39:18.744Z,78.90
2018-08-28T13:41:47.289Z,79.50
2018-08-28T13:44:15.843Z,79.50
2018-08-28T13:46:47.352Z,79.20
2018-08-28T13:49:15.936Z,79.00
2018-08-28T13:51:44.529Z,78.70
2018-08-28T13:54:16.961Z,81.20
2018-08-28T13:56:45.481Z,80.40
2018-08-28T13:59:17.723Z,80.10
2018-08-28T14:01:46.206Z,78.30
2018-08-28T14:04:18.589Z,76.90
2018-08-28T14:06:47.061Z,76.70
2018-08-28T14:09:15.558Z,77.50
2018-08-28T14:11:48.963Z,76.30
2018-08-28T14:14:17.485Z,76.20
2018-08-28T14:16:49.937Z,82.40
2018-08-28T14:19:18.376Z,79.50
2018-08-28T14:21:50.796Z,75.70
2018-08-28T14:24:19.329Z,80.20
2018-08-28T14:26:55.236Z,80.00
2018-08-28T14:29:23.725Z,78.00
2018-08-28T14:31:57.003Z,79.40
2018-08-28T14:34:25.442Z,78.40
2018-08-28T14:36:57.978Z,76.50
2018-08-28T14:39:26.418Z,79.20
2018-08-28T14:41:58.767Z,78.70
2018-08-28T14:44:27.234Z,77.50
2018-08-28T14:46:55.675Z,81.20
2018-08-28T14:49:27.477Z,77.50
2018-08-28T14:51:55.922Z,78.60
2018-08-28T14:54:24.375Z,77.70
2018-08-28T14:56:56.906Z,78.40
2018-08-28T14:59:25.346Z,77.90
2018-08-28T15:01:57.766Z,77.30
2018-08-28T15:04:26.220Z,79.50
2018-08-28T15:06:54.860Z,83.00
2018-08-28T15:09:26.398Z,81.00
2018-08-28T15:11:55.163Z,80.50
2018-08-28T15:14:27.225Z,80.80
2018-08-28T15:16:55.698Z,81.10
2018-08-28T15:19:24.151Z,82.70
2018-08-28T15:21:56.859Z,82.50
2018-08-28T15:24:25.951Z,81.40
2018-08-28T15:27:03.155Z,81.20
2018-08-28T15:29:31.559Z,83.00
2018-08-28T15:32:03.965Z,82.00
2018-08-28T15:34:32.391Z,88.00
2018-08-28T15:37:04.793Z,84.20
2018-08-28T15:39:33.245Z,84.30
2018-08-28T15:42:01.690Z,84.50
2018-08-28T15:44:33.387Z,82.40
2018-08-28T15:47:01.857Z,86.30
2018-08-28T15:49:30.300Z,82.60
2018-08-28T15:52:03.017Z,83.60
2018-08-28T15:54:31.534Z,83.10
2018-08-28T15:57:03.864Z,82.10
2018-08-28T15:59:32.311Z,81.50
2018-08-28T16:02:00.822Z,83.30
2018-08-28T16:04:32.448Z,86.00
2018-08-28T16:07:00.885Z,85.00
2018-08-28T16:09:29.339Z,83.80
2018-08-28T16:12:01.962Z,82.70
2018-08-28T16:14:30.419Z,83.00
2018-08-28T16:17:02.796Z,84.20
2018-08-28T16:19:31.255Z,86.60
2018-08-28T16:22:04.545Z,82.80
2018-08-28T16:24:32.989Z,83.40
2018-08-28T16:27:09.125Z,84.20
2018-08-28T16:29:37.715Z,86.30
2018-08-28T16:32:09.924Z,83.40
2018-08-28T16:34:38.406Z,85.20
2018-08-28T16:37:10.853Z,82.90
2018-08-28T16:39:39.940Z,86.20
2018-08-28T16:42:11.727Z,83.50
2018-08-28T16:44:40.216Z,83.50
2018-08-28T16:47:08.679Z,85.40
2018-08-28T16:49:40.369Z,85.60
2018-08-28T16:52:08.940Z,85.50
2018-08-28T16:54:37.395Z,87.50
2018-08-28T16:57:09.889Z,88.30
2018-08-28T16:59:38.536Z,90.10
2018-08-28T17:02:10.739Z,89.40
2018-08-28T17:04:39.179Z,89.60
2018-08-28T17:07:07.636Z,89.10
2018-08-28T17:09:39.290Z,90.90
2018-08-28T17:12:08.653Z,90.10
2018-08-28T17:14:42.145Z,90.20
2018-08-28T17:17:10.640Z,91.60
2018-08-28T17:19:43.826Z,92.00
2018-08-28T17:22:12.596Z,90.40
2018-08-28T17:24:44.741Z,91.30
2018-08-28T17:27:17.441Z,92.60
2018-08-28T17:29:50.164Z,94.50
2018-08-28T17:32:18.861Z,94.10
2018-08-28T17:34:51.909Z,93.70
2018-08-28T17:37:20.556Z,92.30
2018-08-28T17:39:52.756Z,93.00
2018-08-28T17:42:21.460Z,94.80
2018-08-28T17:44:53.693Z,93.20
2018-08-28T17:47:22.608Z,94.30
2018-08-28T17:49:54.552Z,95.30
2018-08-28T17:52:23.072Z,94.40
2018-08-28T17:54:51.666Z,96.10
2018-08-28T17:57:24.030Z,96.60
2018-08-28T17:59:52.801Z,96.80
2018-08-28T18:02:25.016Z,96.80
2018-08-28T18:04:53.632Z,97.70
2018-08-28T18:07:25.753Z,98.00
2018-08-28T18:09:54.367Z,98.70
2018-08-28T18:12:22.902Z,98.50
2018-08-28T18:14:54.401Z,99.10
2018-08-28T18:17:23.006Z,99.90
2018-08-28T18:19:56.177Z,99.90
2018-08-28T18:22:24.753Z,99.90
2018-08-28T18:24:57.153Z,99.90
2018-08-28T18:27:28.797Z,99.90
2018-08-28T18:30:00.598Z,99.90
2018-08-28T18:32:29.139Z,99.90
2018-08-28T18:35:01.501Z,99.90
2018-08-28T18:37:30.088Z,99.90
2018-08-28T18:39:58.611Z,99.90
2018-08-28T18:42:32.229Z,99.90
2018-08-28T18:45:00.824Z,99.90
2018-08-28T18:47:36.439Z,99.90
2018-08-28T18:50:05.160Z,99.90
2018-08-28T18:52:38.210Z,99.90
2018-08-28T18:55:06.904Z,99.90
2018-08-28T18:57:39.980Z,99.90
2018-08-28T19:00:08.579Z,99.90
2018-08-28T19:02:40.931Z,99.90
2018-08-28T19:05:09.414Z,99.90
2018-08-28T19:07:41.890Z,99.90
2018-08-28T19:10:10.449Z,99.90
2018-08-28T19:12:42.618Z,99.90
2018-08-28T19:15:11.959Z,99.90
2018-08-28T19:17:43.569Z,99.90
2018-08-28T19:20:12.099Z,99.90
2018-08-28T19:22:40.654Z,99.90
2018-08-28T19:25:13.931Z,99.90
2018-08-28T19:27:45.689Z,99.90
2018-08-28T19:30:17.532Z,99.90
2018-08-28T19:32:46.189Z,99.90
2018-08-28T19:35:18.411Z,99.90
2018-08-28T19:37:46.954Z,99.90
2018-08-28T19:40:15.494Z,99.90
2018-08-28T19:42:47.948Z,99.90
2018-08-28T19:45:16.629Z,99.90
2018-08-28T19:47:48.837Z,99.90
2018-08-28T19:50:17.356Z,99.90
2018-08-28T19:52:45.864Z,99.90
2018-08-28T19:55:17.429Z,99.90
2018-08-28T19:57:45.987Z,99.90
2018-08-28T20:00:14.490Z,99.90
2018-08-28T20:02:46.840Z,99.90
2018-08-28T20:05:15.316Z,99.90
2018-08-28T20:07:43.858Z,99.90
2018-08-28T20:10:15.520Z,99.90
2018-08-28T20:12:44.055Z,99.90
2018-08-28T20:15:17.231Z,99.90
2018-08-28T20:17:45.799Z,99.90
2018-08-28T20:20:18.189Z,99.90
2018-08-28T20:22:46.710Z,99.90
2018-08-28T20:25:19.288Z,99.90
2018-08-28T20:27:50.773Z,99.90
2018-08-28T20:30:22.668Z,99.90
2018-08-28T20:32:51.162Z,99.90
2018-08-28T20:35:19.679Z,99.90
2018-08-28T20:37:53.019Z,99.90
2018-08-28T20:40:21.543Z,99.90
2018-08-28T20:42:53.978Z,99.90
2018-08-28T20:45:22.525Z,99.90
2018-08-28T20:47:51.042Z,99.90
2018-08-28T20:50:22.495Z,99.90
2018-08-28T20:52:51.060Z,99.90
2018-08-28T20:55:19.552Z,99.90
2018-08-28T20:57:52.067Z,99.90
2018-08-28T21:00:20.627Z,99.90
2018-08-28T21:02:49.145Z,99.90
2018-08-28T21:05:27.855Z,99.90
2018-08-28T21:07:57.216Z,99.90
2018-08-28T21:10:28.716Z,99.90
2018-08-28T21:12:57.337Z,99.90
2018-08-28T21:15:25.819Z,99.90
2018-08-28T21:17:58.273Z,99.90
2018-08-28T21:20:26.832Z,99.90
2018-08-28T21:22:59.169Z,99.90
2018-08-28T21:25:28.253Z,99.90
2018-08-28T21:28:04.528Z,99.90
2018-08-28T21:30:33.102Z,99.90
2018-08-28T21:33:01.681Z,99.90
2018-08-28T21:35:34.050Z,99.90
2018-08-28T21:38:06.578Z,99.90
2018-08-28T21:40:38.583Z,99.90
2018-08-28T21:43:07.109Z,99.90
2018-08-28T21:45:35.631Z,99.90
2018-08-28T21:48:08.040Z,99.90
2018-08-28T21:50:36.547Z,99.90
2018-08-28T21:53:05.078Z,99.90
2018-08-28T21:55:36.620Z,99.90
2018-08-28T21:58:05.132Z,99.90
2018-08-28T22:00:33.756Z,99.90
2018-08-28T22:03:06.215Z,99.90
2018-08-28T22:05:34.724Z,99.90
2018-08-28T22:08:07.925Z,99.90
2018-08-28T22:10:36.448Z,99.90
2018-08-28T22:13:04.985Z,99.90
2018-08-28T22:15:37.409Z,99.90
2018-08-28T22:18:05.959Z,99.90
2018-08-28T22:20:34.499Z,99.90
2018-08-28T22:23:06.074Z,99.90
2018-08-28T22:25:34.816Z,99.90
2018-08-28T22:28:10.610Z,99.90
2018-08-28T22:30:39.116Z,99.90
2018-08-28T22:33:07.660Z,99.90
2018-08-28T22:35:40.076Z,99.90
2018-08-28T22:38:08.701Z,99.90
2018-08-28T22:40:37.224Z,99.90
2018-08-28T22:43:08.688Z,99.90
2018-08-28T22:45:37.314Z,99.90
2018-08-28T22:48:24.008Z,99.90
2018-08-28T22:50:52.528Z,99.90
2018-08-28T22:53:21.051Z,99.90
2018-08-28T22:55:52.599Z,99.90
2018-08-28T22:58:21.085Z,99.90
2018-08-28T23:00:49.588Z,99.90
2018-08-28T23:03:23.075Z,99.90
2018-08-28T23:05:51.617Z,99.90
2018-08-28T23:08:20.134Z,99.90
2018-08-28T23:10:51.619Z,99.90
2018-08-28T23:13:20.158Z,99.90
2018-08-28T23:15:48.706Z,99.90
2018-08-28T23:18:21.154Z,99.90
2018-08-28T23:20:49.630Z,99.90
2018-08-28T23:23:22.023Z,99.90
2018-08-28T23:25:50.506Z,99.90
2018-08-28T23:28:26.560Z,99.90
2018-08-28T23:30:55.386Z,99.90
2018-08-28T23:33:28.303Z,99.90
2018-08-28T23:35:56.847Z,99.90
2018-08-28T23:38:29.219Z,99.90
2018-08-28T23:40:57.705Z,99.90
2018-08-28T23:43:30.019Z,99.90
2018-08-28T23:45:58.513Z,99.90
2018-08-28T23:48:27.067Z,99.90
2018-08-28T23:50:58.725Z,99.90
2018-08-28T23:53:27.242Z,99.90
2018-08-28T23:55:55.771Z,99.90
2018-08-28T23:58:28.140Z,99.90
